Achilles, Virginia
Current Conditions -  °F | °C
As of 11:54 PM on Sunday 21 Dec 2014 (Local Time) from KPHF Reporting Station
Clear Clear  
Wind Chill: 34°   Ceiling: Unl
Heat Index: 34°   Visibility: 8mi
Dew Point: 29°   Wind: 0mph
Humidity: 82%   Direction: NA
Pressure: 30.29"   Gusts: NA
Location:  37.28°N, 76.44°W
Report Text: KPHF 220454Z 00000KT 8SM CLR 01/M02 A3029 RMK AO2 RAE05 SLP257 P0000 T00111017 400831017 $
Loading
Personal Weather Stations






























Interactive Weather Map New forecast layout! Learn more

10-Day Weather Forecast

Advertisements
Track Severe Weather on mobile